Time;durP1;ratioP1;P1;durP2;ratioP2;P2;SDS_P1;SDS_P2;PMS_P1;PMS_P2;Temp;Humidity;BMP_temperature;BMP_pressure;BME280_temperature;BME280_humidity;BME280_pressure;Samples;Min_cycle;Max_cycle;Signal;HPM_P1;HPM_P2
2022/01/06 00:01:06;;;;;;;6.15;1.50;;;4.80;92.40;;;;;;6231982;22;20043;-76
2022/01/06 00:03:32;;;;;;;6.85;1.30;;;4.80;92.40;;;;;;6225935;22;20549;-81
2022/01/06 00:05:58;;;;;;;8.15;1.20;;;4.90;92.40;;;;;;6203541;22;20012;-77
2022/01/06 00:08:23;;;;;;;5.32;2.10;;;4.80;92.40;;;;;;6177694;22;20159;-79
2022/01/06 00:10:50;;;;;;;12.73;2.00;;;4.80;92.40;;;;;;6228751;22;20043;-77
2022/01/06 00:13:23;;;;;;;8.23;1.67;;;4.80;92.40;;;;;;6205289;22;20067;-77
2022/01/06 00:18:23;;;;;;;8.15;2.20;;;4.70;92.40;;;;;;6227083;22;20024;-78
2022/01/06 00:23:34;;;;;;;9.38;1.95;;;4.70;92.40;;;;;;6254637;22;20016;-78
2022/01/06 00:26:00;;;;;;;9.45;3.03;;;4.70;92.40;;;;;;6228315;22;20073;-77
2022/01/06 00:28:26;;;;;;;10.10;2.85;;;4.70;92.40;;;;;;6229420;22;20024;-79
2022/01/06 00:30:52;;;;;;;9.30;2.08;;;4.70;92.40;;;;;;6203960;22;20012;-78
2022/01/06 00:33:18;;;;;;;10.95;2.15;;;4.70;92.40;;;;;;6204215;22;20384;-79
2022/01/06 00:35:43;;;;;;;15.07;3.10;;;4.70;92.40;;;;;;6203639;22;20016;-85
2022/01/06 00:38:09;;;;;;;13.90;2.90;;;4.70;92.50;;;;;;6204469;22;20019;-76
2022/01/06 00:40:35;;;;;;;15.05;2.95;;;4.70;92.50;;;;;;6204104;22;20442;-77
2022/01/06 00:43:02;;;;;;;16.80;3.03;;;4.60;92.40;;;;;;6228772;22;20020;-78
2022/01/06 00:45:28;;;;;;;17.50;3.28;;;4.60;92.80;;;;;;6229603;22;20065;-82
2022/01/06 00:47:54;;;;;;;13.68;2.67;;;4.60;92.50;;;;;;6178839;22;20015;-78
2022/01/06 00:50:20;;;;;;;19.13;4.03;;;4.60;92.50;;;;;;6203861;22;20019;-76
2022/01/06 00:52:46;;;;;;;17.52;3.58;;;4.60;92.50;;;;;;6254144;22;20062;-85
2022/01/06 00:55:13;;;;;;;14.25;3.70;;;4.60;92.50;;;;;;6204627;22;20020;-78
2022/01/06 00:57:38;;;;;;;15.15;3.42;;;4.60;92.50;;;;;;6229018;22;20020;-78
2022/01/06 01:00:10;;;;;;;17.23;3.58;;;4.50;92.50;;;;;;6205501;22;20026;-77
2022/01/06 01:02:36;;;;;;;10.00;3.00;;;4.60;92.50;;;;;;6229032;22;20016;-76
2022/01/06 01:05:02;;;;;;;14.15;2.88;;;4.50;92.50;;;;;;6229013;22;20050;-78
2022/01/06 01:07:28;;;;;;;12.88;2.97;;;4.50;92.50;;;;;;6204231;22;20023;-77
2022/01/06 01:09:54;;;;;;;15.98;4.07;;;4.50;92.50;;;;;;6203864;22;20015;-78
2022/01/06 01:12:22;;;;;;;13.38;4.82;;;4.50;92.50;;;;;;6203821;22;20039;-76
2022/01/06 01:15:04;;;;;;;12.63;3.40;;;4.50;92.60;;;;;;6230546;22;20055;-82
2022/01/06 01:17:29;;;;;;;14.73;3.13;;;4.40;92.50;;;;;;6227554;22;20016;-77
2022/01/06 01:19:55;;;;;;;15.00;2.95;;;4.50;92.60;;;;;;6201804;22;20077;-78
2022/01/06 01:22:21;;;;;;;15.68;3.33;;;4.40;92.60;;;;;;6203469;22;20016;-77
2022/01/06 01:24:47;;;;;;;13.45;3.25;;;4.40;92.60;;;;;;6203980;22;20019;-77
2022/01/06 01:27:15;;;;;;;13.50;3.47;;;4.50;92.60;;;;;;6203703;22;20095;-77
2022/01/06 01:29:55;;;;;;;14.98;3.15;;;4.40;92.60;;;;;;6204047;22;20102;-76
2022/01/06 01:32:28;;;;;;;19.30;4.28;;;4.40;92.60;;;;;;6232039;22;20011;-77
2022/01/06 01:34:59;;;;;;;15.38;3.97;;;4.40;92.60;;;;;;6205173;22;20076;-81
2022/01/06 01:37:26;;;;;;;12.43;2.85;;;4.40;92.60;;;;;;6231077;22;20016;-77
2022/01/06 01:39:51;;;;;;;17.63;3.75;;;4.40;92.60;;;;;;6253708;22;20027;-78
2022/01/06 01:42:17;;;;;;;12.70;3.50;;;4.30;92.60;;;;;;6202400;22;20070;-77
2022/01/06 01:44:44;;;;;;;14.38;4.22;;;4.30;92.60;;;;;;6228839;22;20020;-77
2022/01/06 01:47:14;;;;;;;12.60;2.97;;;4.30;92.60;;;;;;6203520;22;20020;-78
2022/01/06 01:49:54;;;;;;;14.73;3.72;;;4.30;92.60;;;;;;6253386;22;20019;-77
2022/01/06 01:52:20;;;;;;;14.23;3.30;;;4.30;92.70;;;;;;6204628;22;20512;-77
2022/01/06 01:54:52;;;;;;;15.85;4.53;;;4.30;92.70;;;;;;6204302;22;20073;-78
2022/01/06 01:57:17;;;;;;;15.82;3.80;;;4.30;92.70;;;;;;6252363;22;20016;-77
2022/01/06 01:59:44;;;;;;;17.60;4.30;;;4.30;92.70;;;;;;6201925;22;20055;-79
2022/01/06 02:02:09;;;;;;;17.70;4.00;;;4.30;92.70;;;;;;6202673;22;20020;-77
2022/01/06 02:04:35;;;;;;;13.15;3.35;;;4.20;93.00;;;;;;6203025;22;20334;-77
2022/01/06 02:07:03;;;;;;;16.48;3.83;;;4.20;92.70;;;;;;6228365;22;20015;-78
2022/01/06 02:09:29;;;;;;;23.08;4.80;;;4.20;92.70;;;;;;6228605;22;20016;-77
2022/01/06 02:11:56;;;;;;;14.40;3.88;;;4.20;92.70;;;;;;6178611;22;20387;-77
2022/01/06 02:14:25;;;;;;;14.18;3.75;;;4.20;92.70;;;;;;6228857;22;20012;-79
2022/01/06 02:16:53;;;;;;;17.83;4.70;;;4.20;92.70;;;;;;6203559;22;20102;-77
2022/01/06 02:19:19;;;;;;;16.02;4.28;;;4.20;92.70;;;;;;6203692;22;20658;-77
2022/01/06 02:21:45;;;;;;;16.45;3.47;;;4.10;92.70;;;;;;6178578;22;20024;-78
2022/01/06 02:24:10;;;;;;;15.85;3.95;;;4.20;92.70;;;;;;6178313;22;20055;-77
2022/01/06 02:26:37;;;;;;;13.25;3.20;;;4.10;92.70;;;;;;6203009;22;20107;-77
2022/01/06 02:29:03;;;;;;;21.80;4.07;;;4.20;92.70;;;;;;6203249;22;20499;-81
2022/01/06 02:31:42;;;;;;;15.32;3.65;;;4.10;92.70;;;;;;6178143;22;20067;-77
2022/01/06 02:34:08;;;;;;;14.25;3.58;;;4.10;93.00;;;;;;6178465;22;20434;-78
2022/01/06 02:36:34;;;;;;;16.85;3.35;;;4.10;92.70;;;;;;6228446;22;20085;-76
2022/01/06 02:39:08;;;;;;;14.45;3.60;;;4.10;92.70;;;;;;6228512;22;20529;-78
2022/01/06 02:41:34;;;;;;;15.43;3.53;;;4.10;92.70;;;;;;6254259;22;20016;-78
2022/01/06 02:44:03;;;;;;;14.65;4.15;;;4.10;92.70;;;;;;6202956;22;20319;-77
2022/01/06 02:46:28;;;;;;;14.80;3.85;;;4.10;92.70;;;;;;6202798;22;20024;-80
2022/01/06 02:48:54;;;;;;;16.88;4.40;;;4.10;92.70;;;;;;6202931;22;20051;-78
2022/01/06 02:51:20;;;;;;;13.75;3.58;;;4.00;92.70;;;;;;6202844;22;20103;-77
2022/01/06 02:53:50;;;;;;;10.35;2.75;;;4.00;92.70;;;;;;6203535;22;20062;-78
2022/01/06 02:56:16;;;;;;;13.50;3.38;;;4.00;92.70;;;;;;6203634;22;20080;-78
2022/01/06 02:58:41;;;;;;;14.57;2.92;;;4.00;92.70;;;;;;6202654;22;20055;-78
2022/01/06 03:01:07;;;;;;;15.18;4.00;;;4.00;92.70;;;;;;6226033;22;20450;-83
2022/01/06 03:03:36;;;;;;;14.35;3.08;;;4.00;92.70;;;;;;6226050;22;20022;-77
2022/01/06 03:06:01;;;;;;;13.25;3.00;;;3.90;92.70;;;;;;6202726;22;20023;-76
2022/01/06 03:08:27;;;;;;;12.52;3.35;;;3.90;92.70;;;;;;6202574;22;20062;-77
2022/01/06 03:10:54;;;;;;;13.38;2.85;;;3.90;92.70;;;;;;6178370;22;20086;-77
2022/01/06 03:13:20;;;;;;;11.82;2.88;;;3.90;92.70;;;;;;6178302;22;20016;-77
2022/01/06 03:15:46;;;;;;;18.83;3.42;;;3.90;92.70;;;;;;6228809;22;20030;-76
2022/01/06 03:18:11;;;;;;;18.02;3.42;;;3.90;92.70;;;;;;6204885;22;20020;-82
2022/01/06 03:20:37;;;;;;;15.75;2.95;;;3.90;92.70;;;;;;6230337;22;20038;-76
2022/01/06 03:23:03;;;;;;;13.00;2.80;;;3.90;92.70;;;;;;6256246;22;20023;-76
2022/01/06 03:25:28;;;;;;;14.82;3.70;;;3.90;92.70;;;;;;6230545;22;20477;-76
2022/01/06 03:27:54;;;;;;;14.50;2.80;;;3.90;92.70;;;;;;6180691;22;20027;-76
2022/01/06 03:30:21;;;;;;;18.10;3.53;;;3.80;92.60;;;;;;6229724;22;20138;-76
2022/01/06 03:32:49;;;;;;;15.13;3.83;;;3.80;92.70;;;;;;6203934;22;20012;-77
2022/01/06 03:35:19;;;;;;;17.48;3.25;;;3.80;93.00;;;;;;6204872;22;20050;-77
2022/01/06 03:37:44;;;;;;;15.27;3.05;;;3.80;92.60;;;;;;6205064;22;20015;-76
2022/01/06 03:40:11;;;;;;;15.50;3.55;;;3.80;92.60;;;;;;6229845;22;20101;-77
2022/01/06 03:42:37;;;;;;;12.55;2.95;;;3.80;92.90;;;;;;6179925;22;20043;-76
2022/01/06 03:45:11;;;;;;;16.92;4.35;;;3.70;92.60;;;;;;6230239;22;20019;-77
2022/01/06 03:47:37;;;;;;;11.65;2.67;;;3.70;92.60;;;;;;6180407;22;20023;-77
2022/01/06 03:50:03;;;;;;;11.80;3.20;;;3.60;92.60;;;;;;6180035;22;20072;-77
2022/01/06 03:52:29;;;;;;;12.68;2.85;;;3.70;92.60;;;;;;6204456;22;20341;-77
2022/01/06 03:54:54;;;;;;;11.65;2.72;;;3.70;92.60;;;;;;6229515;22;20047;-75
2022/01/06 03:57:20;;;;;;;14.85;3.03;;;3.60;92.60;;;;;;6229241;22;20019;-77
2022/01/06 03:59:46;;;;;;;12.10;3.08;;;3.60;92.60;;;;;;6203312;22;20025;-76
2022/01/06 04:02:11;;;;;;;11.65;2.72;;;3.60;92.60;;;;;;6229474;22;20161;-77
2022/01/06 04:04:37;;;;;;;12.45;2.95;;;3.60;92.60;;;;;;6229068;22;20012;-76
2022/01/06 04:07:03;;;;;;;14.10;2.72;;;3.60;92.60;;;;;;6204515;22;20077;-77
2022/01/06 04:09:29;;;;;;;12.85;2.50;;;3.60;92.60;;;;;;6204355;22;20015;-76
2022/01/06 04:11:55;;;;;;;13.05;2.60;;;3.60;92.60;;;;;;6204299;22;20022;-76
2022/01/06 04:14:21;;;;;;;13.07;2.95;;;3.50;92.50;;;;;;6204003;22;20049;-84
2022/01/06 04:16:47;;;;;;;15.88;2.40;;;3.50;92.60;;;;;;6204357;22;20541;-76
2022/01/06 04:19:12;;;;;;;13.68;2.55;;;3.50;92.60;;;;;;6204349;22;20047;-77
2022/01/06 04:21:38;;;;;;;11.40;2.97;;;3.50;92.60;;;;;;6229089;22;20012;-78
2022/01/06 04:24:04;;;;;;;10.50;2.78;;;3.50;92.60;;;;;;6204296;22;20015;-76
2022/01/06 04:26:30;;;;;;;9.02;2.50;;;3.50;92.60;;;;;;6179383;22;20047;-77
2022/01/06 04:28:55;;;;;;;11.10;2.55;;;3.50;92.90;;;;;;6204001;22;20071;-77
2022/01/06 04:31:21;;;;;;;15.45;2.95;;;3.50;92.50;;;;;;6178442;22;20016;-82
2022/01/06 04:33:47;;;;;;;11.20;3.22;;;3.40;92.50;;;;;;6203870;22;20094;-76
2022/01/06 04:36:13;;;;;;;13.63;2.88;;;3.40;92.60;;;;;;6203785;22;20412;-76
2022/01/06 04:38:38;;;;;;;12.85;3.08;;;3.40;92.50;;;;;;6253484;22;20486;-76
2022/01/06 04:41:04;;;;;;;15.93;2.95;;;3.40;92.60;;;;;;6253828;22;20027;-75
2022/01/06 04:43:30;;;;;;;12.50;2.97;;;3.40;92.60;;;;;;6203164;22;20098;-77
2022/01/06 04:45:56;;;;;;;19.55;3.20;;;3.40;92.60;;;;;;6178044;22;20028;-76
2022/01/06 04:48:22;;;;;;;12.95;2.97;;;3.30;92.60;;;;;;6204089;22;20031;-75
2022/01/06 04:50:47;;;;;;;11.27;2.90;;;3.30;92.60;;;;;;6203971;22;20011;-76
2022/01/06 04:53:13;;;;;;;13.57;3.97;;;3.20;92.50;;;;;;6204171;22;20091;-76
2022/01/06 04:55:39;;;;;;;9.25;2.45;;;3.20;92.60;;;;;;6203620;22;20108;-75
2022/01/06 04:58:05;;;;;;;9.55;2.85;;;3.20;92.60;;;;;;6178669;22;20012;-75
2022/01/06 05:00:30;;;;;;;11.45;2.95;;;3.30;92.60;;;;;;6228610;22;20024;-76
2022/01/06 05:02:56;;;;;;;13.23;2.65;;;3.20;92.60;;;;;;6228412;22;20024;-76
2022/01/06 05:05:22;;;;;;;11.68;2.90;;;3.10;92.60;;;;;;6229040;22;20051;-75
2022/01/06 05:07:48;;;;;;;10.00;3.13;;;3.10;92.60;;;;;;6203138;22;20020;-75
2022/01/06 05:10:13;;;;;;;14.93;2.85;;;3.10;92.70;;;;;;6178325;22;20134;-75
2022/01/06 05:12:40;;;;;;;11.57;2.78;;;3.10;92.70;;;;;;6228655;22;20019;-76
2022/01/06 05:15:06;;;;;;;10.48;3.15;;;3.10;92.70;;;;;;6203757;22;20323;-75
2022/01/06 05:17:32;;;;;;;12.00;2.97;;;3.00;92.60;;;;;;6203249;22;20023;-77
2022/01/06 05:19:58;;;;;;;8.95;2.88;;;3.00;92.60;;;;;;6228650;22;20011;-77
2022/01/06 05:22:24;;;;;;;13.27;4.28;;;3.00;92.70;;;;;;6228390;22;20113;-75
2022/01/06 05:24:50;;;;;;;11.07;2.90;;;3.00;92.70;;;;;;6202811;22;20564;-75
2022/01/06 05:27:17;;;;;;;10.25;2.97;;;2.90;92.70;;;;;;6252871;22;20073;-75
2022/01/06 05:29:42;;;;;;;10.73;3.13;;;2.90;92.60;;;;;;6253813;22;20016;-75
2022/01/06 05:32:08;;;;;;;10.60;2.78;;;2.90;92.70;;;;;;6203415;22;20019;-75
2022/01/06 05:34:34;;;;;;;12.45;3.35;;;2.90;92.70;;;;;;6228192;22;20020;-82
2022/01/06 05:37:00;;;;;;;7.38;2.35;;;2.80;92.70;;;;;;6202694;22;20020;-75
2022/01/06 05:39:25;;;;;;;17.60;3.38;;;2.80;92.70;;;;;;6227845;22;20020;-75
2022/01/06 05:41:51;;;;;;;13.57;3.28;;;2.80;92.70;;;;;;6202569;22;20012;-76
2022/01/06 05:44:17;;;;;;;13.93;3.88;;;2.80;92.60;;;;;;6202428;22;20016;-75
2022/01/06 05:46:43;;;;;;;12.20;3.10;;;2.80;92.70;;;;;;6202512;22;20016;-76
2022/01/06 05:49:08;;;;;;;12.27;2.70;;;2.70;92.60;;;;;;6202939;22;20433;-76
2022/01/06 05:51:34;;;;;;;10.40;3.05;;;2.70;92.60;;;;;;6202859;22;20012;-76
2022/01/06 05:54:01;;;;;;;12.95;2.85;;;2.70;92.60;;;;;;6227902;22;20058;-75
2022/01/06 05:56:28;;;;;;;15.73;3.05;;;2.60;92.60;;;;;;6203313;22;20012;-75
2022/01/06 05:58:54;;;;;;;9.13;3.05;;;2.70;92.60;;;;;;6227918;22;20161;-76
2022/01/06 06:01:20;;;;;;;9.13;2.95;;;2.60;92.60;;;;;;6202273;22;20449;-76
2022/01/06 06:03:45;;;;;;;8.88;2.55;;;2.60;92.60;;;;;;6227560;22;20107;-76
2022/01/06 06:06:11;;;;;;;11.20;3.42;;;2.60;92.60;;;;;;6202533;22;20023;-77
2022/01/06 06:08:37;;;;;;;10.93;3.03;;;2.50;92.50;;;;;;6178116;22;20045;-81
2022/01/06 06:11:03;;;;;;;13.65;3.33;;;2.60;92.60;;;;;;6202804;22;20011;-76
2022/01/06 06:13:28;;;;;;;10.63;3.00;;;2.60;92.60;;;;;;6177713;22;20016;-76
2022/01/06 06:15:54;;;;;;;11.50;2.97;;;2.50;92.60;;;;;;6227711;22;20019;-77
2022/01/06 06:18:20;;;;;;;14.90;3.35;;;2.50;92.60;;;;;;6202698;22;20019;-77
2022/01/06 06:20:45;;;;;;;12.55;3.03;;;2.50;92.60;;;;;;6202429;22;20161;-77
2022/01/06 06:23:11;;;;;;;10.98;3.17;;;2.40;92.90;;;;;;6177980;22;20446;-76
2022/01/06 06:25:37;;;;;;;12.43;3.40;;;2.40;92.60;;;;;;6202861;22;20012;-75
2022/01/06 06:28:03;;;;;;;9.25;3.13;;;2.40;92.60;;;;;;6199709;22;20085;-78
2022/01/06 06:30:29;;;;;;;12.60;3.25;;;2.40;92.60;;;;;;6225989;22;20509;-76
2022/01/06 06:32:54;;;;;;;11.50;2.80;;;2.40;92.60;;;;;;6202188;22;20015;-76
2022/01/06 06:35:20;;;;;;;14.90;3.20;;;2.40;92.60;;;;;;6202530;22;20031;-78
2022/01/06 06:37:46;;;;;;;9.02;2.63;;;2.40;92.60;;;;;;6202512;22;20073;-77
2022/01/06 06:40:12;;;;;;;19.10;2.92;;;2.40;92.60;;;;;;6227527;22;20103;-75
2022/01/06 06:42:37;;;;;;;11.73;2.90;;;2.30;92.60;;;;;;6227937;22;20020;-75
2022/01/06 06:45:04;;;;;;;10.05;2.70;;;2.30;92.60;;;;;;6201998;22;20091;-76
2022/01/06 06:47:29;;;;;;;11.70;2.92;;;2.30;92.50;;;;;;6226792;22;20023;-77
2022/01/06 06:49:57;;;;;;;11.75;4.18;;;2.30;92.50;;;;;;6201443;22;20062;-75
2022/01/06 06:52:22;;;;;;;16.00;3.15;;;2.30;92.50;;;;;;6228855;22;20015;-76
2022/01/06 06:54:48;;;;;;;13.48;3.38;;;2.30;92.60;;;;;;6203423;22;20026;-77
2022/01/06 06:57:14;;;;;;;14.25;3.65;;;2.30;92.50;;;;;;6253880;22;20437;-75
2022/01/06 06:59:40;;;;;;;12.68;3.20;;;2.20;92.50;;;;;;6202350;22;20023;-76
2022/01/06 07:02:06;;;;;;;12.10;2.45;;;2.20;92.60;;;;;;6203577;22;20023;-76
2022/01/06 07:04:32;;;;;;;13.23;3.05;;;2.30;92.50;;;;;;6203701;22;20046;-77
2022/01/06 07:06:57;;;;;;;12.20;3.58;;;2.20;92.90;;;;;;6254391;22;20063;-75
2022/01/06 07:09:23;;;;;;;10.02;3.30;;;2.30;92.60;;;;;;6204652;22;20051;-76
2022/01/06 07:11:49;;;;;;;12.85;3.97;;;2.20;92.50;;;;;;6179408;22;20338;-81
2022/01/06 07:14:14;;;;;;;15.15;3.90;;;2.30;92.50;;;;;;6204353;22;20015;-76
2022/01/06 07:16:40;;;;;;;12.60;3.05;;;2.20;92.50;;;;;;6254905;22;20073;-76
2022/01/06 07:19:06;;;;;;;12.80;3.42;;;2.20;92.50;;;;;;6230088;22;20019;-74
2022/01/06 07:21:32;;;;;;;19.08;3.70;;;2.20;92.50;;;;;;6203428;22;20016;-77
2022/01/06 07:23:57;;;;;;;13.25;3.28;;;2.20;92.60;;;;;;6228804;22;20386;-76
2022/01/06 07:26:24;;;;;;;12.75;2.97;;;2.20;92.60;;;;;;6229556;22;20027;-77
2022/01/06 07:28:49;;;;;;;14.60;3.53;;;2.20;92.50;;;;;;6255169;22;20019;-75
2022/01/06 07:31:15;;;;;;;16.92;2.90;;;2.20;92.50;;;;;;6229628;22;20018;-74
2022/01/06 07:33:41;;;;;;;16.65;3.60;;;2.20;92.50;;;;;;6229719;22;20023;-74
2022/01/06 07:36:07;;;;;;;15.30;3.03;;;2.20;92.50;;;;;;6204697;22;20073;-75
2022/01/06 07:38:33;;;;;;;15.43;3.50;;;2.20;92.50;;;;;;6179819;22;20019;-75
2022/01/06 07:40:58;;;;;;;17.17;3.95;;;2.20;92.50;;;;;;6203797;22;20046;-76
2022/01/06 07:43:24;;;;;;;12.68;3.38;;;2.20;92.60;;;;;;6229621;22;20446;-77
2022/01/06 07:45:50;;;;;;;20.30;4.40;;;2.20;92.60;;;;;;6229894;22;20039;-77
2022/01/06 07:48:19;;;;;;;16.98;3.58;;;2.20;92.60;;;;;;6204161;22;20031;-78
2022/01/06 07:50:46;;;;;;;18.33;3.83;;;2.20;92.60;;;;;;6205940;22;20031;-76
2022/01/06 07:53:18;;;;;;;16.48;3.67;;;2.20;92.60;;;;;;6207129;22;20091;-76
2022/01/06 07:55:43;;;;;;;14.77;3.58;;;2.20;92.60;;;;;;6230006;22;20015;-76
2022/01/06 07:58:09;;;;;;;15.43;3.13;;;2.20;92.60;;;;;;6228664;22;20386;-78
2022/01/06 08:00:35;;;;;;;12.13;3.13;;;2.20;92.60;;;;;;6179254;22;20024;-77
2022/01/06 08:03:01;;;;;;;13.38;3.40;;;2.20;92.60;;;;;;6203781;22;20015;-75
2022/01/06 08:05:27;;;;;;;15.75;3.13;;;2.20;92.60;;;;;;6204469;22;20026;-76
2022/01/06 08:07:56;;;;;;;12.43;3.72;;;2.20;92.60;;;;;;6177954;22;20076;-74
2022/01/06 08:10:22;;;;;;;15.65;3.40;;;2.20;92.60;;;;;;6199261;22;20016;-74
2022/01/06 08:12:48;;;;;;;14.90;3.38;;;2.20;92.60;;;;;;6224863;22;20349;-73
2022/01/06 08:15:16;;;;;;;15.88;2.97;;;2.20;92.60;;;;;;6226577;22;20468;-76
2022/01/06 08:17:42;;;;;;;13.27;3.85;;;2.30;93.00;;;;;;6282195;22;20016;-78
2022/01/06 08:20:09;;;;;;;11.88;3.75;;;2.40;93.00;;;;;;6205235;22;20100;-78
2022/01/06 08:22:35;;;;;;;16.27;3.70;;;2.30;92.80;;;;;;6179881;22;20015;-81
2022/01/06 08:25:02;;;;;;;13.40;4.55;;;2.40;92.70;;;;;;6180481;22;20020;-83
2022/01/06 08:27:28;;;;;;;13.32;3.55;;;2.40;92.80;;;;;;6226963;22;20256;-73
2022/01/06 08:29:54;;;;;;;16.98;4.35;;;2.50;93.50;;;;;;6251042;22;20077;-74
2022/01/06 08:32:20;;;;;;;13.15;3.97;;;2.60;93.00;;;;;;6251640;22;20066;-74
2022/01/06 08:34:46;;;;;;;13.45;3.70;;;2.60;92.90;;;;;;6203157;22;20023;-83
2022/01/06 08:37:12;;;;;;;11.40;3.70;;;2.70;93.10;;;;;;6202251;22;20027;-79
2022/01/06 08:39:38;;;;;;;15.25;3.67;;;2.60;93.00;;;;;;6203649;22;20051;-76
2022/01/06 08:42:04;;;;;;;12.82;3.80;;;2.70;92.90;;;;;;6203679;22;20070;-82
2022/01/06 08:44:31;;;;;;;14.02;4.15;;;2.70;92.90;;;;;;6230308;22;20023;-77
2022/01/06 08:46:59;;;;;;;15.43;4.00;;;2.70;92.90;;;;;;6256805;22;20019;-77
2022/01/06 08:49:25;;;;;;;10.80;3.65;;;2.70;92.90;;;;;;6179741;22;20108;-77
2022/01/06 08:51:51;;;;;;;12.35;3.92;;;2.70;92.90;;;;;;6205573;22;20007;-78
2022/01/06 08:54:17;;;;;;;14.05;4.75;;;2.70;92.90;;;;;;6180862;22;20094;-76
2022/01/06 08:56:43;;;;;;;13.30;3.60;;;2.70;92.90;;;;;;6203765;22;20030;-79
2022/01/06 08:59:09;;;;;;;14.43;3.85;;;2.70;92.90;;;;;;6200642;22;20016;-80
2022/01/06 09:01:35;;;;;;;20.55;4.10;;;3.00;93.80;;;;;;6203696;22;20067;-75
2022/01/06 09:04:00;;;;;;;13.95;4.22;;;3.10;93.90;;;;;;6202759;22;20124;-76
2022/01/06 09:06:27;;;;;;;19.98;4.72;;;3.20;93.20;;;;;;6200511;22;20023;-76
2022/01/06 09:08:53;;;;;;;16.85;5.18;;;3.30;93.00;;;;;;6203865;22;20047;-77
2022/01/06 09:11:19;;;;;;;15.30;4.78;;;3.20;92.90;;;;;;6202568;22;20349;-77
2022/01/06 09:13:56;;;;;;;17.10;4.50;;;3.20;92.90;;;;;;6229542;22;20016;-78
2022/01/06 09:16:31;;;;;;;13.60;4.57;;;3.10;92.90;;;;;;6205268;22;20046;-74
2022/01/06 09:19:03;;;;;;;18.50;4.80;;;3.10;92.90;;;;;;6228767;22;20105;-75
2022/01/06 09:21:29;;;;;;;15.43;4.47;;;3.10;92.90;;;;;;6202150;22;20016;-75
2022/01/06 09:23:59;;;;;;;17.58;4.03;;;3.10;92.90;;;;;;6201041;22;20393;-79
2022/01/06 09:26:25;;;;;;;17.38;4.65;;;3.30;93.40;;;;;;6203710;22;20025;-76
2022/01/06 09:28:51;;;;;;;14.48;3.78;;;3.40;93.00;;;;;;6205023;22;20012;-77
2022/01/06 09:31:17;;;;;;;18.35;5.47;;;3.40;92.90;;;;;;6204307;22;20015;-76
2022/01/06 09:33:42;;;;;;;15.95;4.93;;;3.30;92.80;;;;;;6230386;22;20016;-76
2022/01/06 09:36:08;;;;;;;14.23;4.68;;;3.40;92.80;;;;;;6205006;22;20054;-76
2022/01/06 09:38:34;;;;;;;15.70;5.05;;;3.30;92.80;;;;;;6179691;22;20580;-76
2022/01/06 09:41:03;;;;;;;16.45;5.30;;;3.40;92.80;;;;;;6229815;22;20450;-77
2022/01/06 09:43:30;;;;;;;16.13;5.18;;;3.40;92.90;;;;;;6180429;22;20015;-77
2022/01/06 09:46:03;;;;;;;17.13;4.38;;;3.40;92.90;;;;;;6230088;22;20023;-76
2022/01/06 09:48:29;;;;;;;16.55;5.85;;;3.40;92.90;;;;;;6204523;22;20023;-77
2022/01/06 09:50:55;;;;;;;12.95;4.50;;;3.40;92.90;;;;;;6204486;22;20095;-76
2022/01/06 09:53:21;;;;;;;20.00;4.82;;;3.40;92.90;;;;;;6202072;22;20319;-76
2022/01/06 09:55:47;;;;;;;16.80;5.40;;;3.40;92.90;;;;;;6177282;22;20026;-77
2022/01/06 09:58:26;;;;;;;15.63;5.70;;;3.50;93.00;;;;;;6178783;22;20016;-76
2022/01/06 10:00:52;;;;;;;18.67;5.38;;;3.50;93.00;;;;;;6180770;22;20012;-75
2022/01/06 10:03:18;;;;;;;15.70;4.30;;;3.50;93.00;;;;;;6253648;22;20394;-84
2022/01/06 10:05:49;;;;;;;14.70;4.53;;;3.60;93.00;;;;;;6203178;22;20015;-77
2022/01/06 10:08:26;;;;;;;13.55;4.80;;;3.60;93.00;;;;;;6203452;22;20019;-77
2022/01/06 10:10:52;;;;;;;12.43;4.78;;;3.60;93.00;;;;;;6204063;22;20016;-77
2022/01/06 10:13:19;;;;;;;17.05;4.10;;;3.70;93.10;;;;;;6203875;22;20091;-84
2022/01/06 10:15:46;;;;;;;12.40;4.10;;;3.70;93.10;;;;;;6229268;22;20505;-77
2022/01/06 10:18:13;;;;;;;17.25;4.47;;;3.80;93.10;;;;;;6204893;22;20016;-77
2022/01/06 10:20:38;;;;;;;14.15;4.40;;;3.90;93.20;;;;;;6178987;22;20098;-77
2022/01/06 10:23:13;;;;;;;15.52;4.28;;;4.00;93.20;;;;;;6204121;22;20016;-77
2022/01/06 10:25:39;;;;;;;18.20;5.07;;;4.00;93.20;;;;;;6227742;22;20020;-77
2022/01/06 10:28:17;;;;;;;12.95;4.25;;;4.00;93.20;;;;;;6204125;22;20015;-77
2022/01/06 10:30:48;;;;;;;14.40;5.05;;;4.10;93.20;;;;;;6228299;22;20019;-77
2022/01/06 10:33:21;;;;;;;20.70;4.40;;;4.20;93.30;;;;;;6180974;22;20118;-77
2022/01/06 10:35:48;;;;;;;19.60;4.75;;;4.20;93.30;;;;;;6179928;22;20020;-77
2022/01/06 10:38:25;;;;;;;15.85;4.50;;;4.30;93.30;;;;;;6203377;22;20023;-77
2022/01/06 10:40:50;;;;;;;11.85;4.28;;;4.40;93.50;;;;;;6179518;22;20449;-78
2022/01/06 10:43:19;;;;;;;16.85;4.90;;;4.40;93.50;;;;;;6203522;22;20024;-77
2022/01/06 10:45:45;;;;;;;15.57;5.00;;;4.50;93.60;;;;;;6204355;22;20012;-78
2022/01/06 10:48:11;;;;;;;16.17;4.15;;;4.60;93.60;;;;;;6229404;22;20018;-77
2022/01/06 10:50:38;;;;;;;14.63;4.32;;;4.70;93.60;;;;;;6203965;22;20308;-77
2022/01/06 10:53:10;;;;;;;16.98;4.82;;;4.80;93.60;;;;;;6204598;22;20020;-78
2022/01/06 10:55:37;;;;;;;17.42;4.38;;;4.80;93.60;;;;;;6229424;22;20342;-77
2022/01/06 10:58:08;;;;;;;16.40;4.30;;;4.90;93.60;;;;;;6204181;22;20047;-77
2022/01/06 11:00:40;;;;;;;17.35;4.15;;;5.00;93.60;;;;;;6253978;22;20095;-77
2022/01/06 11:03:19;;;;;;;11.77;4.30;;;5.10;93.90;;;;;;6229570;22;20019;-78
2022/01/06 11:05:52;;;;;;;17.02;3.92;;;5.20;93.60;;;;;;6204260;22;20019;-77
2022/01/06 11:08:24;;;;;;;15.20;3.95;;;5.20;93.40;;;;;;6204455;22;20102;-78
2022/01/06 11:11:03;;;;;;;;;;;5.30;93.50;;;;;;6230687;22;20041;-77
2022/01/06 11:13:32;;;;;;;15.00;4.57;;;5.40;93.90;;;;;;6229511;22;20309;-85
2022/01/06 11:15:58;;;;;;;16.45;4.57;;;5.60;93.50;;;;;;6228535;22;20015;-77
2022/01/06 11:18:24;;;;;;;17.05;4.22;;;5.70;93.30;;;;;;6180398;22;20382;-77
2022/01/06 11:20:50;;;;;;;14.05;4.03;;;5.90;93.20;;;;;;6204712;22;20011;-80
2022/01/06 11:23:22;;;;;;;20.23;4.35;;;6.20;93.10;;;;;;6204360;22;20154;-78
2022/01/06 11:26:04;;;;;;;12.75;3.47;;;6.60;93.00;;;;;;6230732;22;20012;-78
2022/01/06 11:28:30;;;;;;;17.70;4.28;;;7.10;92.60;;;;;;6229633;22;20023;-81
2022/01/06 11:30:56;;;;;;;13.88;3.85;;;7.70;91.30;;;;;;6203958;22;20019;-78
2022/01/06 11:33:22;;;;;;;14.05;3.97;;;8.20;90.50;;;;;;6229062;22;20091;-78
2022/01/06 11:35:55;;;;;;;13.32;4.00;;;8.70;89.30;;;;;;6201700;22;20083;-78
2022/01/06 11:38:23;;;;;;;13.50;3.78;;;9.10;88.10;;;;;;6204902;22;20055;-77
2022/01/06 11:40:50;;;;;;;11.38;4.07;;;9.60;86.60;;;;;;6231741;22;20124;-78
2022/01/06 11:43:16;;;;;;;14.93;4.53;;;10.00;85.60;;;;;;6206938;22;20067;-78
2022/01/06 11:45:42;;;;;;;16.33;4.78;;;10.30;84.60;;;;;;6206507;22;20035;-78
2022/01/06 11:48:16;;;;;;;13.50;4.07;;;10.40;84.20;;;;;;6207101;22;20016;-77
2022/01/06 11:50:48;;;;;;;12.52;3.28;;;10.50;84.00;;;;;;6183827;22;20016;-77
2022/01/06 11:53:15;;;;;;;14.88;3.13;;;10.80;83.60;;;;;;6206380;22;20020;-78
2022/01/06 11:55:42;;;;;;;14.82;4.28;;;11.20;83.50;;;;;;6206068;22;20011;-79
2022/01/06 11:58:11;;;;;;;13.38;2.97;;;11.50;82.80;;;;;;6256421;22;20077;-77
2022/01/06 12:00:42;;;;;;;11.82;3.85;;;11.80;82.30;;;;;;6230896;22;20485;-82
2022/01/06 12:03:12;;;;;;;16.08;4.38;;;12.10;81.40;;;;;;6207116;22;20023;-81
2022/01/06 12:05:41;;;;;;;15.85;3.55;;;12.40;80.90;;;;;;6206933;22;20016;-83
2022/01/06 12:08:07;;;;;;;15.00;4.10;;;12.70;80.50;;;;;;6206382;22;20029;-78
2022/01/06 12:10:47;;;;;;;14.13;3.97;;;12.90;80.20;;;;;;6231813;22;20024;-77
2022/01/06 12:13:12;;;;;;;9.52;3.67;;;13.10;78.60;;;;;;6182132;22;20019;-77
2022/01/06 12:15:48;;;;;;;11.35;3.35;;;13.10;79.50;;;;;;6181785;22;20020;-83
2022/01/06 12:18:19;;;;;;;11.60;3.70;;;12.90;78.30;;;;;;6206569;22;20035;-77
2022/01/06 12:20:45;;;;;;;14.70;3.55;;;13.00;78.80;;;;;;6206459;22;20024;-78
2022/01/06 12:23:11;;;;;;;14.35;4.60;;;13.10;78.60;;;;;;6206875;22;20030;-79
2022/01/06 12:25:36;;;;;;;18.13;4.32;;;13.20;78.20;;;;;;6231400;22;20016;-78
2022/01/06 12:28:02;;;;;;;12.82;3.45;;;13.40;77.70;;;;;;6181634;22;20023;-77
2022/01/06 12:30:30;;;;;;;14.38;3.67;;;13.50;76.90;;;;;;6206465;22;20438;-78
2022/01/06 12:32:56;;;;;;;14.13;3.83;;;13.60;76.10;;;;;;6206606;22;20054;-76
2022/01/06 12:35:35;;;;;;;14.15;3.22;;;13.70;76.00;;;;;;6257156;22;20012;-78
2022/01/06 12:38:00;;;;;;;11.38;4.60;;;13.80;73.70;;;;;;6206878;22;20015;-77
2022/01/06 12:40:38;;;;;;;16.52;4.47;;;13.80;74.80;;;;;;6206663;22;20442;-78
2022/01/06 12:43:20;;;;;;;16.63;3.90;;;13.80;73.50;;;;;;6206188;22;20015;-77
2022/01/06 12:45:46;;;;;;;16.05;4.28;;;13.80;72.70;;;;;;6231431;22;20107;-80
2022/01/06 12:48:12;;;;;;;13.13;3.55;;;13.80;74.50;;;;;;6181480;22;20077;-78
2022/01/06 12:50:45;;;;;;;15.48;4.43;;;13.60;74.30;;;;;;6231706;22;20012;-78
2022/01/06 12:53:11;;;;;;;13.48;3.75;;;13.50;72.90;;;;;;6182035;22;20062;-77